sensor_id;sensor_type;location;lat;lon;timestamp;P1;durP1;ratioP1;P2;durP2;ratioP2
74245;SDS011;62601;51.044;13.788;2022-12-08T00:02:19;7.35;;;3.75;;
74245;SDS011;62601;51.044;13.788;2022-12-08T00:04:41;5.30;;;3.65;;
74245;SDS011;62601;51.044;13.788;2022-12-08T00:07:01;9.77;;;3.88;;
74245;SDS011;62601;51.044;13.788;2022-12-08T00:09:31;5.45;;;3.75;;
74245;SDS011;62601;51.044;13.788;2022-12-08T00:11:56;5.75;;;3.13;;
74245;SDS011;62601;51.044;13.788;2022-12-08T00:14:18;5.15;;;3.28;;
74245;SDS011;62601;51.044;13.788;2022-12-08T00:16:39;6.75;;;3.85;;
74245;SDS011;62601;51.044;13.788;2022-12-08T00:19:00;4.95;;;3.50;;
74245;SDS011;62601;51.044;13.788;2022-12-08T00:21:21;6.25;;;3.20;;
74245;SDS011;62601;51.044;13.788;2022-12-08T00:23:41;8.48;;;3.53;;
74245;SDS011;62601;51.044;13.788;2022-12-08T00:26:03;7.10;;;3.42;;
74245;SDS011;62601;51.044;13.788;2022-12-08T00:28:24;5.20;;;3.70;;
74245;SDS011;62601;51.044;13.788;2022-12-08T00:30:46;6.00;;;3.30;;
74245;SDS011;62601;51.044;13.788;2022-12-08T00:33:08;5.38;;;3.22;;
74245;SDS011;62601;51.044;13.788;2022-12-08T00:35:29;7.18;;;3.90;;
74245;SDS011;62601;51.044;13.788;2022-12-08T00:37:51;7.40;;;4.60;;
74245;SDS011;62601;51.044;13.788;2022-12-08T00:40:12;7.65;;;4.10;;
74245;SDS011;62601;51.044;13.788;2022-12-08T00:42:32;7.20;;;3.92;;
74245;SDS011;62601;51.044;13.788;2022-12-08T00:44:54;5.35;;;3.63;;
74245;SDS011;62601;51.044;13.788;2022-12-08T00:47:15;6.47;;;3.50;;
74245;SDS011;62601;51.044;13.788;2022-12-08T00:49:40;5.30;;;3.30;;
74245;SDS011;62601;51.044;13.788;2022-12-08T00:52:02;7.30;;;3.60;;
74245;SDS011;62601;51.044;13.788;2022-12-08T00:54:22;4.43;;;3.38;;
74245;SDS011;62601;51.044;13.788;2022-12-08T00:56:43;5.10;;;3.45;;
74245;SDS011;62601;51.044;13.788;2022-12-08T00:59:05;5.40;;;3.53;;
74245;SDS011;62601;51.044;13.788;2022-12-08T01:01:25;5.30;;;3.50;;
74245;SDS011;62601;51.044;13.788;2022-12-08T01:03:47;7.63;;;3.75;;
74245;SDS011;62601;51.044;13.788;2022-12-08T01:06:09;7.97;;;3.83;;
74245;SDS011;62601;51.044;13.788;2022-12-08T01:08:30;5.57;;;3.67;;
74245;SDS011;62601;51.044;13.788;2022-12-08T01:10:52;7.85;;;4.38;;
74245;SDS011;62601;51.044;13.788;2022-12-08T01:13:13;10.82;;;4.40;;
74245;SDS011;62601;51.044;13.788;2022-12-08T01:15:34;4.72;;;3.60;;
74245;SDS011;62601;51.044;13.788;2022-12-08T01:17:56;5.20;;;3.72;;
74245;SDS011;62601;51.044;13.788;2022-12-08T01:20:17;6.15;;;3.90;;
74245;SDS011;62601;51.044;13.788;2022-12-08T01:22:39;7.47;;;4.45;;
74245;SDS011;62601;51.044;13.788;2022-12-08T01:25:00;6.60;;;3.53;;
74245;SDS011;62601;51.044;13.788;2022-12-08T01:27:22;5.70;;;3.70;;
74245;SDS011;62601;51.044;13.788;2022-12-08T01:29:43;5.05;;;3.55;;
74245;SDS011;62601;51.044;13.788;2022-12-08T01:32:05;7.28;;;4.32;;
74245;SDS011;62601;51.044;13.788;2022-12-08T01:34:26;7.82;;;4.00;;
74245;SDS011;62601;51.044;13.788;2022-12-08T01:36:47;7.50;;;3.42;;
74245;SDS011;62601;51.044;13.788;2022-12-08T01:39:09;5.55;;;3.47;;
74245;SDS011;62601;51.044;13.788;2022-12-08T01:41:32;5.05;;;3.97;;
74245;SDS011;62601;51.044;13.788;2022-12-08T01:43:56;5.45;;;4.13;;
74245;SDS011;62601;51.044;13.788;2022-12-08T01:46:21;8.70;;;4.38;;
74245;SDS011;62601;51.044;13.788;2022-12-08T01:48:41;5.63;;;3.30;;
74245;SDS011;62601;51.044;13.788;2022-12-08T01:51:02;7.43;;;4.43;;
74245;SDS011;62601;51.044;13.788;2022-12-08T01:53:29;6.20;;;3.67;;
74245;SDS011;62601;51.044;13.788;2022-12-08T01:55:53;5.10;;;3.63;;
74245;SDS011;62601;51.044;13.788;2022-12-08T01:58:27;5.82;;;3.67;;
74245;SDS011;62601;51.044;13.788;2022-12-08T02:00:51;9.15;;;4.22;;
74245;SDS011;62601;51.044;13.788;2022-12-08T02:03:12;7.97;;;4.85;;
74245;SDS011;62601;51.044;13.788;2022-12-08T02:05:36;7.85;;;4.00;;
74245;SDS011;62601;51.044;13.788;2022-12-08T02:08:09;5.28;;;3.35;;
74245;SDS011;62601;51.044;13.788;2022-12-08T02:10:32;11.18;;;4.47;;
74245;SDS011;62601;51.044;13.788;2022-12-08T02:12:52;7.65;;;4.05;;
74245;SDS011;62601;51.044;13.788;2022-12-08T02:15:15;9.85;;;5.18;;
74245;SDS011;62601;51.044;13.788;2022-12-08T02:18:01;8.18;;;4.50;;
74245;SDS011;62601;51.044;13.788;2022-12-08T02:20:22;6.88;;;4.57;;
74245;SDS011;62601;51.044;13.788;2022-12-08T02:32:33;11.52;;;5.00;;
74245;SDS011;62601;51.044;13.788;2022-12-08T02:35:19;9.23;;;5.05;;
74245;SDS011;62601;51.044;13.788;2022-12-08T02:38:06;12.55;;;4.80;;
74245;SDS011;62601;51.044;13.788;2022-12-08T02:40:35;9.45;;;4.70;;
74245;SDS011;62601;51.044;13.788;2022-12-08T02:43:13;8.27;;;4.95;;
74245;SDS011;62601;51.044;13.788;2022-12-08T02:45:41;5.82;;;4.35;;
74245;SDS011;62601;51.044;13.788;2022-12-08T02:48:03;8.45;;;5.90;;
74245;SDS011;62601;51.044;13.788;2022-12-08T02:50:25;8.07;;;4.65;;
74245;SDS011;62601;51.044;13.788;2022-12-08T02:52:47;8.98;;;4.88;;
74245;SDS011;62601;51.044;13.788;2022-12-08T02:55:13;6.35;;;4.97;;
74245;SDS011;62601;51.044;13.788;2022-12-08T03:00:15;8.02;;;4.90;;
74245;SDS011;62601;51.044;13.788;2022-12-08T03:10:31;7.47;;;4.88;;
74245;SDS011;62601;51.044;13.788;2022-12-08T03:13:16;6.55;;;4.03;;
74245;SDS011;62601;51.044;13.788;2022-12-08T03:15:34;6.50;;;4.00;;
74245;SDS011;62601;51.044;13.788;2022-12-08T03:17:56;8.35;;;5.00;;
74245;SDS011;62601;51.044;13.788;2022-12-08T03:20:18;7.15;;;4.90;;
74245;SDS011;62601;51.044;13.788;2022-12-08T03:22:41;6.18;;;4.40;;
74245;SDS011;62601;51.044;13.788;2022-12-08T03:25:04;7.03;;;5.00;;
74245;SDS011;62601;51.044;13.788;2022-12-08T03:27:27;7.75;;;4.95;;
74245;SDS011;62601;51.044;13.788;2022-12-08T03:29:50;8.48;;;5.22;;
74245;SDS011;62601;51.044;13.788;2022-12-08T03:32:18;5.63;;;4.80;;
74245;SDS011;62601;51.044;13.788;2022-12-08T03:34:42;10.60;;;5.28;;
74245;SDS011;62601;51.044;13.788;2022-12-08T03:37:03;6.10;;;4.88;;
74245;SDS011;62601;51.044;13.788;2022-12-08T03:39:24;5.80;;;4.45;;
74245;SDS011;62601;51.044;13.788;2022-12-08T03:41:46;7.55;;;4.53;;
74245;SDS011;62601;51.044;13.788;2022-12-08T03:44:07;6.07;;;5.13;;
74245;SDS011;62601;51.044;13.788;2022-12-08T03:46:29;6.15;;;5.25;;
74245;SDS011;62601;51.044;13.788;2022-12-08T03:48:50;7.28;;;4.70;;
74245;SDS011;62601;51.044;13.788;2022-12-08T03:51:11;9.35;;;5.20;;
74245;SDS011;62601;51.044;13.788;2022-12-08T03:53:33;8.73;;;5.15;;
74245;SDS011;62601;51.044;13.788;2022-12-08T03:55:53;7.63;;;5.22;;
74245;SDS011;62601;51.044;13.788;2022-12-08T03:58:13;7.60;;;5.40;;
74245;SDS011;62601;51.044;13.788;2022-12-08T04:00:33;7.97;;;4.65;;
74245;SDS011;62601;51.044;13.788;2022-12-08T04:02:54;7.97;;;5.35;;
74245;SDS011;62601;51.044;13.788;2022-12-08T04:05:15;7.13;;;5.07;;
74245;SDS011;62601;51.044;13.788;2022-12-08T04:07:40;5.60;;;4.10;;
74245;SDS011;62601;51.044;13.788;2022-12-08T04:10:01;6.97;;;4.90;;
74245;SDS011;62601;51.044;13.788;2022-12-08T04:12:22;7.80;;;5.00;;
74245;SDS011;62601;51.044;13.788;2022-12-08T04:14:44;7.20;;;5.80;;
74245;SDS011;62601;51.044;13.788;2022-12-08T04:17:05;9.18;;;5.65;;
74245;SDS011;62601;51.044;13.788;2022-12-08T04:19:27;10.10;;;5.55;;
74245;SDS011;62601;51.044;13.788;2022-12-08T04:21:47;10.90;;;5.60;;
74245;SDS011;62601;51.044;13.788;2022-12-08T04:24:07;7.15;;;5.35;;
74245;SDS011;62601;51.044;13.788;2022-12-08T04:26:29;7.18;;;5.28;;
74245;SDS011;62601;51.044;13.788;2022-12-08T04:28:51;6.88;;;5.13;;
74245;SDS011;62601;51.044;13.788;2022-12-08T04:31:12;7.88;;;5.30;;
74245;SDS011;62601;51.044;13.788;2022-12-08T04:33:33;9.45;;;7.07;;
74245;SDS011;62601;51.044;13.788;2022-12-08T04:35:54;6.20;;;5.40;;
74245;SDS011;62601;51.044;13.788;2022-12-08T04:38:14;9.57;;;6.38;;
74245;SDS011;62601;51.044;13.788;2022-12-08T04:40:34;9.02;;;5.35;;
74245;SDS011;62601;51.044;13.788;2022-12-08T04:42:55;9.35;;;5.70;;
74245;SDS011;62601;51.044;13.788;2022-12-08T04:45:17;8.40;;;5.57;;
74245;SDS011;62601;51.044;13.788;2022-12-08T04:47:38;6.78;;;4.80;;
74245;SDS011;62601;51.044;13.788;2022-12-08T04:49:59;7.95;;;5.10;;
74245;SDS011;62601;51.044;13.788;2022-12-08T04:52:19;7.80;;;5.28;;
74245;SDS011;62601;51.044;13.788;2022-12-08T04:54:41;6.10;;;5.40;;
74245;SDS011;62601;51.044;13.788;2022-12-08T04:57:01;8.25;;;5.40;;
74245;SDS011;62601;51.044;13.788;2022-12-08T04:59:24;8.23;;;5.10;;
74245;SDS011;62601;51.044;13.788;2022-12-08T05:01:44;7.47;;;4.90;;
74245;SDS011;62601;51.044;13.788;2022-12-08T05:04:05;7.15;;;5.22;;
74245;SDS011;62601;51.044;13.788;2022-12-08T05:06:29;9.88;;;5.75;;
74245;SDS011;62601;51.044;13.788;2022-12-08T05:08:51;7.30;;;5.10;;
74245;SDS011;62601;51.044;13.788;2022-12-08T05:11:11;9.82;;;5.00;;
74245;SDS011;62601;51.044;13.788;2022-12-08T05:13:33;7.22;;;5.05;;
74245;SDS011;62601;51.044;13.788;2022-12-08T05:15:53;6.75;;;5.15;;
74245;SDS011;62601;51.044;13.788;2022-12-08T05:18:14;6.07;;;5.43;;
74245;SDS011;62601;51.044;13.788;2022-12-08T05:20:35;5.82;;;5.05;;
74245;SDS011;62601;51.044;13.788;2022-12-08T05:22:55;8.40;;;4.95;;
74245;SDS011;62601;51.044;13.788;2022-12-08T05:25:16;5.75;;;4.68;;
74245;SDS011;62601;51.044;13.788;2022-12-08T05:27:36;6.00;;;5.07;;
74245;SDS011;62601;51.044;13.788;2022-12-08T05:29:58;10.23;;;5.45;;
74245;SDS011;62601;51.044;13.788;2022-12-08T05:32:21;6.07;;;5.28;;
74245;SDS011;62601;51.044;13.788;2022-12-08T05:34:41;7.55;;;5.07;;
74245;SDS011;62601;51.044;13.788;2022-12-08T05:37:01;6.93;;;5.75;;
74245;SDS011;62601;51.044;13.788;2022-12-08T05:39:21;7.90;;;5.65;;
74245;SDS011;62601;51.044;13.788;2022-12-08T05:41:42;7.82;;;5.63;;
74245;SDS011;62601;51.044;13.788;2022-12-08T05:44:04;8.80;;;6.00;;
74245;SDS011;62601;51.044;13.788;2022-12-08T05:46:25;17.80;;;11.50;;
74245;SDS011;62601;51.044;13.788;2022-12-08T05:48:46;8.23;;;6.57;;
74245;SDS011;62601;51.044;13.788;2022-12-08T05:51:07;7.68;;;6.05;;
74245;SDS011;62601;51.044;13.788;2022-12-08T05:53:30;7.60;;;5.88;;
74245;SDS011;62601;51.044;13.788;2022-12-08T05:55:52;9.18;;;6.20;;
74245;SDS011;62601;51.044;13.788;2022-12-08T05:58:15;8.93;;;6.65;;
74245;SDS011;62601;51.044;13.788;2022-12-08T06:00:37;15.07;;;8.40;;
74245;SDS011;62601;51.044;13.788;2022-12-08T06:02:57;11.40;;;7.15;;
74245;SDS011;62601;51.044;13.788;2022-12-08T06:05:17;7.82;;;6.35;;
74245;SDS011;62601;51.044;13.788;2022-12-08T06:07:41;8.07;;;5.80;;
74245;SDS011;62601;51.044;13.788;2022-12-08T06:10:03;6.88;;;6.07;;
74245;SDS011;62601;51.044;13.788;2022-12-08T06:12:25;8.13;;;6.22;;
74245;SDS011;62601;51.044;13.788;2022-12-08T06:14:45;12.07;;;7.32;;
74245;SDS011;62601;51.044;13.788;2022-12-08T06:17:07;8.43;;;6.90;;
74245;SDS011;62601;51.044;13.788;2022-12-08T06:19:28;9.02;;;6.53;;
74245;SDS011;62601;51.044;13.788;2022-12-08T06:21:50;8.25;;;6.35;;
74245;SDS011;62601;51.044;13.788;2022-12-08T06:24:11;8.30;;;6.53;;
74245;SDS011;62601;51.044;13.788;2022-12-08T06:26:33;6.43;;;5.63;;
74245;SDS011;62601;51.044;13.788;2022-12-08T06:28:55;7.90;;;6.38;;
74245;SDS011;62601;51.044;13.788;2022-12-08T06:31:19;9.05;;;6.20;;
74245;SDS011;62601;51.044;13.788;2022-12-08T06:33:39;10.75;;;7.00;;
74245;SDS011;62601;51.044;13.788;2022-12-08T06:36:01;6.80;;;5.75;;
74245;SDS011;62601;51.044;13.788;2022-12-08T06:38:22;8.63;;;6.68;;
74245;SDS011;62601;51.044;13.788;2022-12-08T06:40:43;8.35;;;5.97;;
74245;SDS011;62601;51.044;13.788;2022-12-08T06:43:04;6.65;;;5.60;;
74245;SDS011;62601;51.044;13.788;2022-12-08T06:45:26;6.55;;;5.85;;
74245;SDS011;62601;51.044;13.788;2022-12-08T06:47:47;9.48;;;6.90;;
74245;SDS011;62601;51.044;13.788;2022-12-08T06:50:07;8.70;;;6.72;;
74245;SDS011;62601;51.044;13.788;2022-12-08T06:52:29;12.23;;;7.25;;
74245;SDS011;62601;51.044;13.788;2022-12-08T06:54:51;7.40;;;6.22;;
74245;SDS011;62601;51.044;13.788;2022-12-08T06:57:12;8.32;;;5.63;;
74245;SDS011;62601;51.044;13.788;2022-12-08T06:59:33;10.98;;;6.97;;
74245;SDS011;62601;51.044;13.788;2022-12-08T07:01:53;7.85;;;6.03;;
74245;SDS011;62601;51.044;13.788;2022-12-08T07:04:15;8.40;;;6.47;;
74245;SDS011;62601;51.044;13.788;2022-12-08T07:06:37;10.65;;;6.43;;
74245;SDS011;62601;51.044;13.788;2022-12-08T07:08:58;6.57;;;5.53;;
74245;SDS011;62601;51.044;13.788;2022-12-08T07:11:18;6.78;;;5.85;;
74245;SDS011;62601;51.044;13.788;2022-12-08T07:13:40;7.85;;;5.53;;
74245;SDS011;62601;51.044;13.788;2022-12-08T07:16:03;7.85;;;6.15;;
74245;SDS011;62601;51.044;13.788;2022-12-08T07:18:27;9.00;;;5.93;;
74245;SDS011;62601;51.044;13.788;2022-12-08T07:20:47;7.15;;;5.80;;
74245;SDS011;62601;51.044;13.788;2022-12-08T07:23:08;7.55;;;5.75;;
74245;SDS011;62601;51.044;13.788;2022-12-08T07:25:30;7.32;;;6.15;;
74245;SDS011;62601;51.044;13.788;2022-12-08T07:27:50;9.93;;;5.75;;
74245;SDS011;62601;51.044;13.788;2022-12-08T07:30:12;7.97;;;5.95;;
74245;SDS011;62601;51.044;13.788;2022-12-08T07:32:38;7.93;;;5.72;;
74245;SDS011;62601;51.044;13.788;2022-12-08T07:34:59;6.70;;;5.95;;
74245;SDS011;62601;51.044;13.788;2022-12-08T07:37:21;10.60;;;6.75;;
74245;SDS011;62601;51.044;13.788;2022-12-08T07:39:41;6.75;;;6.05;;
74245;SDS011;62601;51.044;13.788;2022-12-08T07:42:02;7.22;;;6.10;;
74245;SDS011;62601;51.044;13.788;2022-12-08T07:44:22;7.82;;;6.32;;
74245;SDS011;62601;51.044;13.788;2022-12-08T07:46:44;8.85;;;6.05;;
74245;SDS011;62601;51.044;13.788;2022-12-08T07:49:09;8.40;;;6.30;;
74245;SDS011;62601;51.044;13.788;2022-12-08T07:51:30;8.70;;;6.22;;
74245;SDS011;62601;51.044;13.788;2022-12-08T07:53:51;7.72;;;6.43;;
74245;SDS011;62601;51.044;13.788;2022-12-08T07:56:13;10.80;;;6.47;;
74245;SDS011;62601;51.044;13.788;2022-12-08T07:58:35;6.63;;;5.50;;
74245;SDS011;62601;51.044;13.788;2022-12-08T08:00:55;7.18;;;5.90;;
74245;SDS011;62601;51.044;13.788;2022-12-08T08:03:16;8.65;;;6.30;;
74245;SDS011;62601;51.044;13.788;2022-12-08T08:05:37;8.27;;;6.05;;
74245;SDS011;62601;51.044;13.788;2022-12-08T08:07:59;8.45;;;6.10;;
74245;SDS011;62601;51.044;13.788;2022-12-08T08:10:19;11.65;;;8.80;;
74245;SDS011;62601;51.044;13.788;2022-12-08T08:12:39;10.60;;;8.75;;
74245;SDS011;62601;51.044;13.788;2022-12-08T08:15:00;8.88;;;7.50;;
74245;SDS011;62601;51.044;13.788;2022-12-08T08:17:25;9.70;;;6.90;;
74245;SDS011;62601;51.044;13.788;2022-12-08T08:19:45;9.07;;;7.22;;
74245;SDS011;62601;51.044;13.788;2022-12-08T08:22:05;7.20;;;5.88;;
74245;SDS011;62601;51.044;13.788;2022-12-08T08:24:25;6.90;;;6.20;;
74245;SDS011;62601;51.044;13.788;2022-12-08T08:26:46;8.65;;;6.50;;
74245;SDS011;62601;51.044;13.788;2022-12-08T08:29:07;8.20;;;6.15;;
74245;SDS011;62601;51.044;13.788;2022-12-08T08:31:29;8.43;;;6.38;;
74245;SDS011;62601;51.044;13.788;2022-12-08T08:33:50;8.43;;;6.22;;
74245;SDS011;62601;51.044;13.788;2022-12-08T08:36:10;9.45;;;6.95;;
74245;SDS011;62601;51.044;13.788;2022-12-08T08:38:32;8.10;;;6.50;;
74245;SDS011;62601;51.044;13.788;2022-12-08T08:40:52;8.50;;;6.13;;
74245;SDS011;62601;51.044;13.788;2022-12-08T08:43:13;7.10;;;6.20;;
74245;SDS011;62601;51.044;13.788;2022-12-08T08:45:34;11.68;;;6.82;;
74245;SDS011;62601;51.044;13.788;2022-12-08T08:47:55;8.90;;;6.72;;
74245;SDS011;62601;51.044;13.788;2022-12-08T08:50:16;13.10;;;6.95;;
74245;SDS011;62601;51.044;13.788;2022-12-08T08:52:36;9.32;;;6.88;;
74245;SDS011;62601;51.044;13.788;2022-12-08T08:54:57;9.57;;;6.68;;
74245;SDS011;62601;51.044;13.788;2022-12-08T08:57:22;8.65;;;6.40;;
74245;SDS011;62601;51.044;13.788;2022-12-08T08:59:43;8.95;;;6.90;;
74245;SDS011;62601;51.044;13.788;2022-12-08T09:02:05;7.22;;;6.22;;
74245;SDS011;62601;51.044;13.788;2022-12-08T09:04:26;9.00;;;6.63;;
74245;SDS011;62601;51.044;13.788;2022-12-08T09:06:48;11.40;;;7.03;;
74245;SDS011;62601;51.044;13.788;2022-12-08T09:09:12;8.80;;;7.25;;
74245;SDS011;62601;51.044;13.788;2022-12-08T09:11:34;10.02;;;6.90;;
74245;SDS011;62601;51.044;13.788;2022-12-08T09:13:55;8.73;;;7.40;;
74245;SDS011;62601;51.044;13.788;2022-12-08T09:16:17;10.18;;;7.55;;
74245;SDS011;62601;51.044;13.788;2022-12-08T09:18:39;14.68;;;7.28;;
74245;SDS011;62601;51.044;13.788;2022-12-08T09:21:07;14.55;;;9.07;;
74245;SDS011;62601;51.044;13.788;2022-12-08T09:23:28;10.55;;;7.35;;
74245;SDS011;62601;51.044;13.788;2022-12-08T09:25:50;10.02;;;7.78;;
74245;SDS011;62601;51.044;13.788;2022-12-08T09:28:14;9.48;;;7.32;;
74245;SDS011;62601;51.044;13.788;2022-12-08T09:30:36;13.55;;;8.02;;
74245;SDS011;62601;51.044;13.788;2022-12-08T09:32:57;9.50;;;7.25;;
74245;SDS011;62601;51.044;13.788;2022-12-08T09:35:18;11.10;;;7.13;;
74245;SDS011;62601;51.044;13.788;2022-12-08T09:37:38;11.43;;;8.40;;
74245;SDS011;62601;51.044;13.788;2022-12-08T09:40:00;9.70;;;7.05;;
74245;SDS011;62601;51.044;13.788;2022-12-08T09:42:33;10.02;;;7.53;;
74245;SDS011;62601;51.044;13.788;2022-12-08T09:45:02;9.35;;;7.10;;
74245;SDS011;62601;51.044;13.788;2022-12-08T09:47:36;10.35;;;7.60;;
74245;SDS011;62601;51.044;13.788;2022-12-08T09:52:57;8.20;;;6.45;;
74245;SDS011;62601;51.044;13.788;2022-12-08T09:55:56;8.75;;;6.05;;
74245;SDS011;62601;51.044;13.788;2022-12-08T09:57:59;7.85;;;6.00;;
74245;SDS011;62601;51.044;13.788;2022-12-08T10:00:20;8.48;;;6.07;;
74245;SDS011;62601;51.044;13.788;2022-12-08T10:02:40;8.63;;;7.32;;
74245;SDS011;62601;51.044;13.788;2022-12-08T10:05:02;6.75;;;5.65;;
74245;SDS011;62601;51.044;13.788;2022-12-08T10:07:44;6.57;;;5.75;;
74245;SDS011;62601;51.044;13.788;2022-12-08T10:13:05;7.95;;;6.10;;
74245;SDS011;62601;51.044;13.788;2022-12-08T10:15:46;7.63;;;6.47;;
74245;SDS011;62601;51.044;13.788;2022-12-08T10:18:09;9.93;;;6.20;;
74245;SDS011;62601;51.044;13.788;2022-12-08T10:20:36;8.10;;;5.97;;
74245;SDS011;62601;51.044;13.788;2022-12-08T10:25:43;5.90;;;5.30;;
74245;SDS011;62601;51.044;13.788;2022-12-08T10:28:07;6.68;;;5.95;;
74245;SDS011;62601;51.044;13.788;2022-12-08T10:30:37;7.45;;;5.80;;
74245;SDS011;62601;51.044;13.788;2022-12-08T10:32:58;7.15;;;5.65;;
74245;SDS011;62601;51.044;13.788;2022-12-08T10:35:21;7.35;;;5.43;;
74245;SDS011;62601;51.044;13.788;2022-12-08T10:37:58;6.57;;;5.60;;
74245;SDS011;62601;51.044;13.788;2022-12-08T10:40:20;6.95;;;5.30;;
74245;SDS011;62601;51.044;13.788;2022-12-08T10:42:41;6.95;;;6.20;;
74245;SDS011;62601;51.044;13.788;2022-12-08T10:47:42;10.15;;;8.10;;
74245;SDS011;62601;51.044;13.788;2022-12-08T10:55:40;6.68;;;5.72;;
74245;SDS011;62601;51.044;13.788;2022-12-08T10:58:02;6.85;;;5.72;;
74245;SDS011;62601;51.044;13.788;2022-12-08T11:00:27;6.70;;;5.95;;
74245;SDS011;62601;51.044;13.788;2022-12-08T11:02:53;6.32;;;5.63;;
74245;SDS011;62601;51.044;13.788;2022-12-08T11:05:14;7.10;;;6.07;;
74245;SDS011;62601;51.044;13.788;2022-12-08T11:07:36;9.52;;;6.20;;
74245;SDS011;62601;51.044;13.788;2022-12-08T11:09:56;6.65;;;5.28;;
74245;SDS011;62601;51.044;13.788;2022-12-08T11:12:21;6.45;;;5.45;;
74245;SDS011;62601;51.044;13.788;2022-12-08T11:14:46;7.97;;;6.18;;
74245;SDS011;62601;51.044;13.788;2022-12-08T11:19:53;6.88;;;6.18;;
74245;SDS011;62601;51.044;13.788;2022-12-08T11:24:58;5.72;;;4.93;;
74245;SDS011;62601;51.044;13.788;2022-12-08T11:27:19;5.90;;;5.30;;
74245;SDS011;62601;51.044;13.788;2022-12-08T11:29:44;5.70;;;5.07;;
74245;SDS011;62601;51.044;13.788;2022-12-08T11:32:10;8.65;;;5.00;;
74245;SDS011;62601;51.044;13.788;2022-12-08T11:34:34;6.05;;;5.10;;
74245;SDS011;62601;51.044;13.788;2022-12-08T11:36:57;8.40;;;5.40;;
74245;SDS011;62601;51.044;13.788;2022-12-08T11:39:19;6.22;;;4.78;;
74245;SDS011;62601;51.044;13.788;2022-12-08T11:41:41;5.40;;;4.50;;
74245;SDS011;62601;51.044;13.788;2022-12-08T11:47:05;5.20;;;4.50;;
74245;SDS011;62601;51.044;13.788;2022-12-08T11:49:32;5.15;;;3.95;;
74245;SDS011;62601;51.044;13.788;2022-12-08T11:51:55;4.40;;;4.00;;
74245;SDS011;62601;51.044;13.788;2022-12-08T11:54:24;5.13;;;3.95;;
74245;SDS011;62601;51.044;13.788;2022-12-08T11:56:48;4.88;;;3.83;;
74245;SDS011;62601;51.044;13.788;2022-12-08T12:01:50;5.40;;;3.95;;
74245;SDS011;62601;51.044;13.788;2022-12-08T12:07:08;7.80;;;3.67;;
74245;SDS011;62601;51.044;13.788;2022-12-08T12:09:54;4.30;;;3.63;;
74245;SDS011;62601;51.044;13.788;2022-12-08T12:18:09;3.97;;;3.53;;
74245;SDS011;62601;51.044;13.788;2022-12-08T12:20:47;4.65;;;3.72;;
74245;SDS011;62601;51.044;13.788;2022-12-08T12:25:57;4.35;;;3.60;;
74245;SDS011;62601;51.044;13.788;2022-12-08T12:28:19;4.63;;;3.60;;
74245;SDS011;62601;51.044;13.788;2022-12-08T12:30:55;4.22;;;2.85;;
74245;SDS011;62601;51.044;13.788;2022-12-08T12:33:21;3.70;;;3.40;;
74245;SDS011;62601;51.044;13.788;2022-12-08T12:35:43;6.43;;;3.20;;
74245;SDS011;62601;51.044;13.788;2022-12-08T12:38:04;3.75;;;3.30;;
74245;SDS011;62601;51.044;13.788;2022-12-08T12:40:32;3.60;;;3.22;;
74245;SDS011;62601;51.044;13.788;2022-12-08T12:47:48;4.13;;;3.72;;
74245;SDS011;62601;51.044;13.788;2022-12-08T12:50:08;5.95;;;4.20;;
74245;SDS011;62601;51.044;13.788;2022-12-08T12:52:35;4.00;;;3.60;;
74245;SDS011;62601;51.044;13.788;2022-12-08T12:59:40;4.47;;;4.07;;
74245;SDS011;62601;51.044;13.788;2022-12-08T13:02:13;5.80;;;3.80;;
74245;SDS011;62601;51.044;13.788;2022-12-08T13:04:36;3.72;;;3.30;;
74245;SDS011;62601;51.044;13.788;2022-12-08T13:06:57;5.28;;;3.83;;
74245;SDS011;62601;51.044;13.788;2022-12-08T13:09:31;5.18;;;3.92;;
74245;SDS011;62601;51.044;13.788;2022-12-08T13:12:11;5.25;;;3.50;;
74245;SDS011;62601;51.044;13.788;2022-12-08T13:14:49;6.15;;;3.90;;
74245;SDS011;62601;51.044;13.788;2022-12-08T13:17:10;6.82;;;3.65;;
74245;SDS011;62601;51.044;13.788;2022-12-08T13:19:32;4.32;;;3.88;;
74245;SDS011;62601;51.044;13.788;2022-12-08T13:21:56;4.97;;;3.85;;
74245;SDS011;62601;51.044;13.788;2022-12-08T13:24:32;4.78;;;3.83;;
74245;SDS011;62601;51.044;13.788;2022-12-08T13:29:26;6.35;;;3.75;;
74245;SDS011;62601;51.044;13.788;2022-12-08T13:31:49;5.35;;;4.18;;
74245;SDS011;62601;51.044;13.788;2022-12-08T13:37:51;7.35;;;4.93;;
74245;SDS011;62601;51.044;13.788;2022-12-08T13:39:46;5.57;;;4.30;;
74245;SDS011;62601;51.044;13.788;2022-12-08T13:42:28;4.25;;;3.47;;
74245;SDS011;62601;51.044;13.788;2022-12-08T13:44:52;4.85;;;4.00;;
74245;SDS011;62601;51.044;13.788;2022-12-08T13:47:15;4.65;;;3.50;;
74245;SDS011;62601;51.044;13.788;2022-12-08T13:49:38;4.78;;;3.90;;
74245;SDS011;62601;51.044;13.788;2022-12-08T13:52:02;7.57;;;3.78;;
74245;SDS011;62601;51.044;13.788;2022-12-08T13:56:48;4.35;;;3.75;;
74245;SDS011;62601;51.044;13.788;2022-12-08T13:59:23;4.97;;;4.10;;
74245;SDS011;62601;51.044;13.788;2022-12-08T14:01:46;5.45;;;3.90;;
74245;SDS011;62601;51.044;13.788;2022-12-08T14:04:11;4.50;;;3.55;;
74245;SDS011;62601;51.044;13.788;2022-12-08T14:06:37;5.22;;;3.50;;
74245;SDS011;62601;51.044;13.788;2022-12-08T14:09:00;5.60;;;4.15;;
74245;SDS011;62601;51.044;13.788;2022-12-08T14:11:09;5.85;;;3.92;;
74245;SDS011;62601;51.044;13.788;2022-12-08T14:13:38;4.82;;;4.22;;
74245;SDS011;62601;51.044;13.788;2022-12-08T14:16:00;5.85;;;4.18;;
74245;SDS011;62601;51.044;13.788;2022-12-08T14:18:26;5.45;;;4.20;;
74245;SDS011;62601;51.044;13.788;2022-12-08T14:20:57;5.75;;;3.58;;
74245;SDS011;62601;51.044;13.788;2022-12-08T14:23:18;4.80;;;4.22;;
74245;SDS011;62601;51.044;13.788;2022-12-08T14:25:39;5.22;;;4.03;;
74245;SDS011;62601;51.044;13.788;2022-12-08T14:28:09;5.43;;;4.80;;
74245;SDS011;62601;51.044;13.788;2022-12-08T14:30:34;4.82;;;3.92;;
74245;SDS011;62601;51.044;13.788;2022-12-08T14:33:00;5.88;;;3.80;;
74245;SDS011;62601;51.044;13.788;2022-12-08T14:35:32;6.65;;;4.55;;
74245;SDS011;62601;51.044;13.788;2022-12-08T14:37:58;6.80;;;4.20;;
74245;SDS011;62601;51.044;13.788;2022-12-08T14:45:30;6.20;;;4.78;;
74245;SDS011;62601;51.044;13.788;2022-12-08T14:47:55;5.82;;;4.72;;
74245;SDS011;62601;51.044;13.788;2022-12-08T14:50:35;7.13;;;5.38;;
74245;SDS011;62601;51.044;13.788;2022-12-08T14:53:15;5.65;;;4.53;;
74245;SDS011;62601;51.044;13.788;2022-12-08T14:55:37;5.93;;;5.03;;
74245;SDS011;62601;51.044;13.788;2022-12-08T14:57:59;5.93;;;4.53;;
74245;SDS011;62601;51.044;13.788;2022-12-08T15:00:21;6.07;;;4.72;;
74245;SDS011;62601;51.044;13.788;2022-12-08T15:02:43;6.10;;;5.47;;
74245;SDS011;62601;51.044;13.788;2022-12-08T15:05:09;5.78;;;4.70;;
74245;SDS011;62601;51.044;13.788;2022-12-08T15:07:42;6.15;;;4.50;;
74245;SDS011;62601;51.044;13.788;2022-12-08T15:12:36;6.00;;;4.80;;
74245;SDS011;62601;51.044;13.788;2022-12-08T15:17:48;7.90;;;5.43;;
74245;SDS011;62601;51.044;13.788;2022-12-08T15:20:29;9.27;;;4.80;;
74245;SDS011;62601;51.044;13.788;2022-12-08T15:22:51;5.40;;;4.65;;
74245;SDS011;62601;51.044;13.788;2022-12-08T15:25:13;7.97;;;5.07;;
74245;SDS011;62601;51.044;13.788;2022-12-08T15:27:34;5.55;;;4.55;;
74245;SDS011;62601;51.044;13.788;2022-12-08T15:29:56;8.75;;;4.70;;
74245;SDS011;62601;51.044;13.788;2022-12-08T15:32:19;5.93;;;4.50;;
74245;SDS011;62601;51.044;13.788;2022-12-08T15:34:41;6.47;;;4.78;;
74245;SDS011;62601;51.044;13.788;2022-12-08T15:37:03;7.10;;;4.88;;
74245;SDS011;62601;51.044;13.788;2022-12-08T15:39:30;7.63;;;5.55;;